KTPF/TPF METAR and TAF weather

Enter ICAO airport designator
Station Type Date Time Source
KTPF METAR 2020/03/29 15:15 UTC NOAA

KTPF 291515Z AUTO 17009KT 10SM SCT025 BKN100 OVC110 28/22 A3018 RMK AO2


Station Type Date Time Source
KTPF Decoded METAR 2020/03/29 15:15 UTC NOAA

Tampa, Peter O Knight Airport, FL, United States (KTPF) 27-54-56N 082-26-57W
Mar 29, 2020 - 11:15 AM EDT / 2020.03.29 1515 UTC
Wind: from the S (170 degrees) at 10 MPH (9 KT):0
Visibility: 10 mile(s):0
Sky conditions: overcast
Temperature: 82 F (28 C)
Dew Point: 71 F (22 C)
Relative Humidity: 69%
Pressure (altimeter): 30.18 in. Hg (1022 hPa)
ob: KTPF 291515Z AUTO 17009KT 10SM SCT025 BKN100 OVC110 28/22 A3018 RMK AO2
cycle: 15

Station Type Date Time Source
KTPF TAF UTC NOAA

Error!

Example: see airport list